createdAt,value
2022-11-05T00:02:31.634Z,94.09
2022-11-05T00:05:18.251Z,94.12
2022-11-05T00:08:06.165Z,93.79
2022-11-05T00:10:36.369Z,93.82
2022-11-05T00:13:22.167Z,93.81
2022-11-05T00:16:07.612Z,93.63
2022-11-05T00:18:35.639Z,93.62
2022-11-05T00:21:04.999Z,93.65
2022-11-05T00:23:50.186Z,93.85
2022-11-05T00:26:18.163Z,94.02
2022-11-05T00:28:50.903Z,93.60
2022-11-05T00:31:18.898Z,94.48
2022-11-05T00:33:50.277Z,94.82
2022-11-05T00:36:21.336Z,94.55
2022-11-05T00:38:49.509Z,94.79
2022-11-05T00:41:17.327Z,95.49
2022-11-05T00:44:02.591Z,95.19
2022-11-05T00:46:30.611Z,95.28
2022-11-05T00:49:15.888Z,95.14
2022-11-05T00:51:45.232Z,95.21
2022-11-05T00:54:13.074Z,94.97
2022-11-05T00:56:41.037Z,95.13
2022-11-05T00:59:08.902Z,94.92
2022-11-05T01:01:36.777Z,94.97
2022-11-05T01:04:04.925Z,95.02
2022-11-05T01:06:32.770Z,95.17
2022-11-05T01:09:01.950Z,95.07
2022-11-05T01:11:36.966Z,95.30
2022-11-05T01:14:07.648Z,95.10
2022-11-05T01:16:35.720Z,95.00
2022-11-05T01:19:04.251Z,95.06
2022-11-05T01:21:32.379Z,94.68
2022-11-05T01:24:00.292Z,94.90
2022-11-05T01:26:29.675Z,94.97
2022-11-05T01:29:00.337Z,95.21
2022-11-05T01:31:28.585Z,95.35
2022-11-05T01:33:56.510Z,95.20
2022-11-05T01:36:24.404Z,95.56
2022-11-05T01:38:52.364Z,95.49
2022-11-05T01:41:20.241Z,95.55
2022-11-05T01:43:50.763Z,95.66
2022-11-05T01:46:20.800Z,95.86
2022-11-05T01:48:50.163Z,96.22
2022-11-05T01:51:19.815Z,96.48
2022-11-05T01:53:49.493Z,96.55
2022-11-05T01:56:19.136Z,96.64
2022-11-05T01:58:49.649Z,97.01
2022-11-05T02:01:19.354Z,96.53
2022-11-05T02:03:49.318Z,96.53
2022-11-05T02:06:17.825Z,96.79
2022-11-05T02:08:50.244Z,96.68
2022-11-05T02:11:19.362Z,96.68
2022-11-05T02:13:48.120Z,96.78
2022-11-05T02:16:19.958Z,96.53
2022-11-05T02:18:54.176Z,96.49
2022-11-05T02:21:42.075Z,96.41
2022-11-05T02:24:59.211Z,95.99
2022-11-05T02:27:48.382Z,96.04
2022-11-05T02:30:31.878Z,96.08
2022-11-05T02:33:07.565Z,96.25
2022-11-05T02:35:50.416Z,96.11
2022-11-05T02:38:20.481Z,96.38
2022-11-05T02:40:51.468Z,96.19
2022-11-05T02:43:25.885Z,96.33
2022-11-05T02:46:02.768Z,96.38
2022-11-05T02:48:36.667Z,96.12
2022-11-05T02:51:06.873Z,96.44
2022-11-05T02:53:39.766Z,96.42
2022-11-05T02:56:10.054Z,96.48
2022-11-05T02:58:37.895Z,96.61
2022-11-05T03:01:07.593Z,96.33
2022-11-05T03:03:37.151Z,96.22
2022-11-05T03:06:20.937Z,96.11
2022-11-05T03:08:54.875Z,96.20
2022-11-05T03:11:25.001Z,96.37
2022-11-05T03:13:54.852Z,96.45
2022-11-05T03:16:30.659Z,96.82
2022-11-05T03:19:02.250Z,96.47
2022-11-05T03:21:36.204Z,96.85
2022-11-05T03:24:08.448Z,96.88
2022-11-05T03:26:38.912Z,96.89
2022-11-05T03:29:10.489Z,96.88
2022-11-05T03:31:41.909Z,96.92
2022-11-05T03:34:12.570Z,96.67
2022-11-05T03:36:42.742Z,96.38
2022-11-05T03:39:14.804Z,96.77
2022-11-05T03:41:44.396Z,96.76
2022-11-05T03:44:14.088Z,96.76
2022-11-05T03:46:45.322Z,96.74
2022-11-05T03:49:17.580Z,96.53
2022-11-05T03:51:49.135Z,96.74
2022-11-05T03:54:17.178Z,96.92
2022-11-05T03:56:47.471Z,96.69
2022-11-05T03:59:15.512Z,96.71
2022-11-05T04:01:45.052Z,97.03
2022-11-05T04:04:12.968Z,96.74
2022-11-05T04:06:58.469Z,96.61
2022-11-05T04:09:43.835Z,96.61
2022-11-05T04:12:29.118Z,96.54
2022-11-05T04:14:57.112Z,96.54
2022-11-05T04:17:25.464Z,96.98
2022-11-05T04:20:10.817Z,96.75
2022-11-05T04:22:56.335Z,97.23
2022-11-05T04:25:24.369Z,97.04
2022-11-05T04:27:52.483Z,97.42
2022-11-05T04:30:19.615Z,97.26
2022-11-05T04:32:57.936Z,97.27
2022-11-05T04:35:26.673Z,97.11
2022-11-05T04:37:54.584Z,96.82
2022-11-05T04:40:22.516Z,96.92
2022-11-05T04:42:50.594Z,97.28
2022-11-05T04:45:18.556Z,97.18
2022-11-05T04:47:46.538Z,97.21
2022-11-05T04:50:15.799Z,97.55
2022-11-05T04:52:43.922Z,97.56
2022-11-05T04:55:11.773Z,98.00
2022-11-05T04:57:39.785Z,97.67
2022-11-05T05:00:08.510Z,97.62
2022-11-05T05:02:36.723Z,97.77
2022-11-05T05:05:04.810Z,97.89
2022-11-05T05:07:34.389Z,97.91
2022-11-05T05:10:02.656Z,97.60
2022-11-05T05:12:30.699Z,97.67
2022-11-05T05:14:58.518Z,97.65
2022-11-05T05:17:26.412Z,97.58
2022-11-05T05:20:26.396Z,97.69
2022-11-05T05:22:56.260Z,97.61
2022-11-05T05:25:24.166Z,97.66
2022-11-05T05:27:52.377Z,97.68
2022-11-05T05:30:20.353Z,97.85
2022-11-05T05:32:48.240Z,97.63
2022-11-05T05:35:17.190Z,97.55
2022-11-05T05:37:45.483Z,97.88
2022-11-05T05:40:14.767Z,97.67
2022-11-05T05:42:43.608Z,97.61
2022-11-05T05:45:12.209Z,97.56
2022-11-05T05:47:40.202Z,97.65
2022-11-05T05:50:08.281Z,97.54
2022-11-05T05:52:36.135Z,97.53
2022-11-05T05:55:03.958Z,97.78
2022-11-05T05:57:33.112Z,97.79
2022-11-05T06:00:01.834Z,97.71
2022-11-05T06:02:31.007Z,97.75
2022-11-05T06:04:58.932Z,97.94
2022-11-05T06:07:26.801Z,97.75
2022-11-05T06:09:54.627Z,97.95
2022-11-05T06:12:22.647Z,97.66
2022-11-05T06:14:51.883Z,97.87
2022-11-05T06:17:19.694Z,97.76
2022-11-05T06:19:47.786Z,97.63
2022-11-05T06:22:16.003Z,97.66
2022-11-05T06:24:44.068Z,97.65
2022-11-05T06:27:11.880Z,97.88
2022-11-05T06:29:39.814Z,97.82
2022-11-05T06:32:09.088Z,97.93
2022-11-05T06:34:37.713Z,98.09
2022-11-05T06:37:05.523Z,98.02
2022-11-05T06:39:33.323Z,97.98
2022-11-05T06:42:17.912Z,97.74
2022-11-05T06:44:46.925Z,97.96
2022-11-05T06:47:16.109Z,97.98
2022-11-05T06:49:43.908Z,98.25
2022-11-05T06:52:11.726Z,98.30
2022-11-05T06:54:39.878Z,98.56
2022-11-05T06:57:09.516Z,98.65
2022-11-05T06:59:37.368Z,99.57
2022-11-05T07:02:05.288Z,100.00
2022-11-05T07:04:34.648Z,100.00
2022-11-05T07:07:02.714Z,100.00
2022-11-05T07:09:31.001Z,100.00
2022-11-05T07:11:58.904Z,100.00
2022-11-05T07:14:26.742Z,100.00
2022-11-05T07:16:54.619Z,100.00
2022-11-05T07:19:22.420Z,100.00
2022-11-05T07:21:52.377Z,100.00
2022-11-05T07:24:20.219Z,100.00
2022-11-05T07:26:48.279Z,100.00
2022-11-05T07:29:16.083Z,93.95
2022-11-05T07:31:44.072Z,87.88
2022-11-05T07:34:11.973Z,79.65
2022-11-05T07:36:40.301Z,74.16
2022-11-05T07:39:09.781Z,71.09
2022-11-05T07:41:37.608Z,67.06
2022-11-05T07:44:05.717Z,67.79
2022-11-05T07:46:33.584Z,65.44
2022-11-05T07:49:01.366Z,62.67
2022-11-05T07:51:29.310Z,56.83
2022-11-05T07:53:57.373Z,55.05
2022-11-05T07:56:26.683Z,56.42
2022-11-05T07:58:54.478Z,51.92
2022-11-05T08:01:22.586Z,53.09
2022-11-05T08:03:50.511Z,48.89
2022-11-05T08:06:18.354Z,49.36
2022-11-05T08:08:46.319Z,46.15
2022-11-05T08:11:14.494Z,45.05
2022-11-05T08:13:43.980Z,44.24
2022-11-05T08:16:11.796Z,43.72
2022-11-05T08:18:39.612Z,43.05
2022-11-05T08:21:08.864Z,44.79
2022-11-05T08:23:36.878Z,45.08
2022-11-05T08:26:05.054Z,44.85
2022-11-05T08:28:32.927Z,42.48
2022-11-05T08:31:02.116Z,41.70
2022-11-05T08:33:31.295Z,39.71
2022-11-05T08:36:02.651Z,40.41
2022-11-05T08:38:30.937Z,38.60
2022-11-05T08:40:59.089Z,37.69
2022-11-05T08:43:26.993Z,39.02
2022-11-05T08:45:55.132Z,39.13
2022-11-05T08:48:24.396Z,38.00
2022-11-05T08:50:52.400Z,35.43
2022-11-05T08:53:20.230Z,35.47
2022-11-05T08:55:50.111Z,35.32
2022-11-05T08:58:18.377Z,33.25
2022-11-05T09:00:47.821Z,33.97
2022-11-05T09:03:16.564Z,32.90
2022-11-05T09:05:46.108Z,31.73
2022-11-05T09:08:15.254Z,31.61
2022-11-05T09:10:44.549Z,29.72
2022-11-05T09:13:18.320Z,29.85
2022-11-05T09:15:47.942Z,30.03
2022-11-05T09:18:15.991Z,28.66
2022-11-05T09:20:44.129Z,30.19
2022-11-05T09:23:23.994Z,28.50
2022-11-05T09:25:51.803Z,27.26
2022-11-05T09:28:20.504Z,27.27
2022-11-05T09:30:49.473Z,29.05
2022-11-05T09:33:18.031Z,28.42
2022-11-05T09:35:45.910Z,27.84
2022-11-05T09:38:14.337Z,29.06
2022-11-05T09:40:48.005Z,28.12
2022-11-05T09:43:18.992Z,27.77
2022-11-05T09:45:47.398Z,29.94
2022-11-05T09:48:16.977Z,32.06
2022-11-05T09:50:45.995Z,33.65
2022-11-05T09:53:15.414Z,31.71
2022-11-05T09:55:46.387Z,28.55
2022-11-05T09:58:16.589Z,26.90
2022-11-05T10:00:48.514Z,26.72
2022-11-05T10:03:19.929Z,27.56
2022-11-05T10:05:48.787Z,26.72
2022-11-05T10:08:20.993Z,27.56
2022-11-05T10:10:51.467Z,27.87
2022-11-05T10:13:22.872Z,26.12
2022-11-05T10:15:54.923Z,26.19
2022-11-05T10:18:25.602Z,25.25
2022-11-05T10:20:53.417Z,27.33
2022-11-05T10:23:22.668Z,26.82
2022-11-05T10:25:54.727Z,28.32
2022-11-05T10:28:24.218Z,24.99
2022-11-05T10:30:53.711Z,25.50
2022-11-05T10:33:26.193Z,24.66
2022-11-05T10:35:56.656Z,23.86
2022-11-05T10:38:25.160Z,22.28
2022-11-05T10:41:02.667Z,23.02
2022-11-05T10:43:35.108Z,23.46
2022-11-05T10:46:07.657Z,23.03
2022-11-05T10:48:43.934Z,22.68
2022-11-05T10:51:12.637Z,23.50
2022-11-05T10:53:40.716Z,23.29
2022-11-05T10:56:23.425Z,27.57
2022-11-05T10:58:56.330Z,29.10
2022-11-05T11:01:26.063Z,32.07
2022-11-05T11:04:04.957Z,32.33
2022-11-05T11:06:34.501Z,31.88
2022-11-05T11:09:03.499Z,30.38
2022-11-05T11:11:33.265Z,30.13
2022-11-05T11:14:03.589Z,34.04
2022-11-05T11:16:34.929Z,35.27
2022-11-05T11:19:03.614Z,37.37
2022-11-05T11:21:32.172Z,41.07
2022-11-05T11:24:00.806Z,40.34
2022-11-05T11:26:30.750Z,39.05
2022-11-05T11:29:00.110Z,40.82
2022-11-05T11:31:30.673Z,45.06
2022-11-05T11:34:00.967Z,44.56
2022-11-05T11:36:33.523Z,46.49
2022-11-05T11:39:02.481Z,46.41
2022-11-05T11:41:32.311Z,45.85
2022-11-05T11:44:02.555Z,45.50
2022-11-05T11:46:33.767Z,44.51
2022-11-05T11:49:01.745Z,43.41
2022-11-05T11:51:35.063Z,41.67
2022-11-05T11:54:04.113Z,38.49
2022-11-05T11:56:42.959Z,34.98
2022-11-05T11:59:15.607Z,37.14
2022-11-05T12:01:57.692Z,34.08
2022-11-05T12:04:40.478Z,35.51
2022-11-05T12:07:17.400Z,34.32
2022-11-05T12:09:52.360Z,34.92
2022-11-05T12:12:23.441Z,39.11
2022-11-05T12:14:56.302Z,42.99
2022-11-05T12:17:31.972Z,46.99
2022-11-05T12:20:04.518Z,49.62
2022-11-05T12:22:42.353Z,51.45
2022-11-05T12:25:19.582Z,52.77
2022-11-05T12:27:56.435Z,53.88
2022-11-05T12:30:24.418Z,54.68
2022-11-05T12:33:09.988Z,55.49
2022-11-05T12:35:46.993Z,54.62
2022-11-05T12:38:22.094Z,54.36
2022-11-05T12:40:58.717Z,54.34
2022-11-05T12:43:32.065Z,54.95
2022-11-05T12:46:03.396Z,55.40
2022-11-05T12:48:46.407Z,55.76
2022-11-05T12:51:20.143Z,55.02
2022-11-05T12:53:56.662Z,54.39
2022-11-05T12:56:27.677Z,53.69
2022-11-05T12:58:58.961Z,53.64
2022-11-05T13:01:32.463Z,51.79
2022-11-05T13:04:06.608Z,52.18
2022-11-05T13:06:37.200Z,53.99
2022-11-05T13:09:08.533Z,56.24
2022-11-05T13:11:38.626Z,57.79
2022-11-05T13:14:09.979Z,57.60
2022-11-05T13:16:38.870Z,57.82
2022-11-05T13:19:13.964Z,58.59
2022-11-05T13:21:43.198Z,58.54
2022-11-05T13:24:14.328Z,58.99
2022-11-05T13:26:45.208Z,58.15
2022-11-05T13:29:14.663Z,57.15
2022-11-05T13:31:44.818Z,57.71
2022-11-05T13:34:14.149Z,57.32
2022-11-05T13:37:05.720Z,56.88
2022-11-05T13:39:57.745Z,57.50
2022-11-05T13:42:40.465Z,58.95
2022-11-05T13:45:20.960Z,59.45
2022-11-05T13:47:54.587Z,58.75
2022-11-05T13:50:40.663Z,57.76
2022-11-05T13:53:23.165Z,56.17
2022-11-05T13:56:01.664Z,56.03
2022-11-05T13:58:46.717Z,55.54
2022-11-05T14:01:22.276Z,56.04
2022-11-05T14:03:51.712Z,56.16
2022-11-05T14:06:24.687Z,57.15
2022-11-05T14:08:53.195Z,57.99
2022-11-05T14:11:26.051Z,58.06
2022-11-05T14:13:57.171Z,58.32
2022-11-05T14:16:26.674Z,58.71
2022-11-05T14:18:56.220Z,58.45
2022-11-05T14:21:34.335Z,59.18
2022-11-05T14:24:20.308Z,58.98
2022-11-05T14:27:15.718Z,59.80
2022-11-05T14:29:46.007Z,60.18
2022-11-05T14:32:27.589Z,59.97
2022-11-05T14:34:57.224Z,60.47
2022-11-05T14:37:29.562Z,61.02
2022-11-05T14:40:01.411Z,61.07
2022-11-05T14:42:30.480Z,61.73
2022-11-05T14:45:19.616Z,62.03
2022-11-05T14:47:53.123Z,62.63
2022-11-05T14:50:23.532Z,62.17
2022-11-05T14:52:52.311Z,62.82
2022-11-05T14:55:28.311Z,62.73
2022-11-05T14:58:14.991Z,63.32
2022-11-05T15:04:28.436Z,64.24
2022-11-05T15:07:11.303Z,64.23
2022-11-05T15:09:40.712Z,63.93
2022-11-05T15:12:12.127Z,63.99
2022-11-05T15:14:42.322Z,63.45
2022-11-05T15:17:15.550Z,63.92
2022-11-05T15:19:45.579Z,63.87
2022-11-05T15:22:20.960Z,64.16
2022-11-05T15:24:49.132Z,64.29
2022-11-05T15:27:20.026Z,64.94
2022-11-05T15:29:48.100Z,65.14
2022-11-05T15:32:17.574Z,65.14
2022-11-05T15:34:53.398Z,65.50
2022-11-05T15:37:22.383Z,65.64
2022-11-05T15:39:51.050Z,65.91
2022-11-05T15:42:19.623Z,65.93
2022-11-05T15:44:48.506Z,66.33
2022-11-05T15:47:18.329Z,66.86
2022-11-05T15:49:47.913Z,66.93
2022-11-05T15:52:17.847Z,66.81
2022-11-05T15:54:53.303Z,66.70
2022-11-05T15:57:29.184Z,67.15
2022-11-05T15:59:57.275Z,67.41
2022-11-05T16:02:31.921Z,67.63
2022-11-05T16:05:01.350Z,67.96
2022-11-05T16:07:39.820Z,67.52
2022-11-05T16:10:21.972Z,67.50
2022-11-05T16:12:51.604Z,67.24
2022-11-05T16:15:24.264Z,67.50
2022-11-05T16:17:57.504Z,67.32
2022-11-05T16:20:30.067Z,67.64
2022-11-05T16:23:00.482Z,67.56
2022-11-05T16:25:31.050Z,68.01
2022-11-05T16:27:59.663Z,68.34
2022-11-05T16:30:28.001Z,68.20
2022-11-05T16:33:03.056Z,68.37
2022-11-05T16:35:31.400Z,68.10
2022-11-05T16:38:01.528Z,67.79
2022-11-05T16:40:29.418Z,67.75
2022-11-05T16:43:08.864Z,67.34
2022-11-05T16:45:41.218Z,67.54
2022-11-05T16:48:10.857Z,67.33
2022-11-05T16:50:39.131Z,67.02
2022-11-05T16:53:08.328Z,66.79
2022-11-05T16:55:38.297Z,66.07
2022-11-05T16:58:07.499Z,65.71
2022-11-05T17:00:35.536Z,65.70
2022-11-05T17:03:04.077Z,65.84
2022-11-05T17:05:32.239Z,65.73
2022-11-05T17:08:01.086Z,65.65
2022-11-05T17:10:30.737Z,65.20
2022-11-05T17:12:58.743Z,65.75
2022-11-05T17:15:27.806Z,65.60
2022-11-05T17:17:56.206Z,65.25
2022-11-05T17:20:27.602Z,65.42
2022-11-05T17:22:55.621Z,65.89
2022-11-05T17:25:23.594Z,65.62
2022-11-05T17:27:52.836Z,65.60
2022-11-05T17:30:21.024Z,65.80
2022-11-05T17:32:48.955Z,65.41
2022-11-05T17:35:17.292Z,65.84
2022-11-05T17:37:45.090Z,65.80
2022-11-05T17:40:16.876Z,65.77
2022-11-05T17:42:45.027Z,65.82
2022-11-05T17:45:14.582Z,66.03
2022-11-05T17:47:42.607Z,65.97
2022-11-05T17:50:11.749Z,65.84
2022-11-05T17:52:43.753Z,65.61
2022-11-05T17:55:17.362Z,65.70
2022-11-05T17:57:46.429Z,66.03
2022-11-05T18:00:17.080Z,66.04
2022-11-05T18:02:51.248Z,66.12
2022-11-05T18:05:19.621Z,66.28
2022-11-05T18:07:47.824Z,66.14
2022-11-05T18:10:16.224Z,66.44
2022-11-05T18:12:44.961Z,66.20
2022-11-05T18:15:13.916Z,66.13
2022-11-05T18:17:43.362Z,66.03
2022-11-05T18:20:17.557Z,65.84
2022-11-05T18:22:47.500Z,66.13
2022-11-05T18:25:15.488Z,66.42
2022-11-05T18:27:43.566Z,66.32
2022-11-05T18:30:14.063Z,66.18
2022-11-05T18:32:44.060Z,66.66
2022-11-05T18:35:13.172Z,66.60
2022-11-05T18:37:41.325Z,66.70
2022-11-05T18:40:09.808Z,66.68
2022-11-05T18:42:37.653Z,66.67
2022-11-05T18:45:06.037Z,66.88
2022-11-05T18:47:34.146Z,66.97
2022-11-05T18:50:03.342Z,66.98
2022-11-05T18:52:32.108Z,67.27
2022-11-05T18:55:00.585Z,67.37
2022-11-05T18:57:28.928Z,67.22
2022-11-05T18:59:56.830Z,67.43
2022-11-05T19:02:25.008Z,67.03
2022-11-05T19:05:26.605Z,67.97
2022-11-05T19:07:42.634Z,68.02
2022-11-05T19:10:10.458Z,68.24
2022-11-05T19:12:38.532Z,68.44
2022-11-05T19:15:07.998Z,68.50
2022-11-05T19:17:36.160Z,68.30
2022-11-05T19:20:05.478Z,68.22
2022-11-05T19:22:33.731Z,68.67
2022-11-05T19:25:02.922Z,68.52
2022-11-05T19:27:30.926Z,68.50
2022-11-05T19:29:58.775Z,68.69
2022-11-05T19:32:26.786Z,68.91
2022-11-05T19:34:54.620Z,69.10
2022-11-05T19:37:22.498Z,69.11
2022-11-05T19:39:50.301Z,69.33
2022-11-05T19:42:19.521Z,69.41
2022-11-05T19:44:47.596Z,69.39
2022-11-05T19:47:15.460Z,69.47
2022-11-05T19:49:43.326Z,69.66
2022-11-05T19:52:11.195Z,70.31
2022-11-05T19:54:39.081Z,70.05
2022-11-05T19:57:07.964Z,70.12
2022-11-05T19:59:37.327Z,70.58
2022-11-05T20:02:05.700Z,70.58
2022-11-05T20:04:33.710Z,70.98
2022-11-05T20:07:01.529Z,70.74
2022-11-05T20:09:29.526Z,70.84
2022-11-05T20:11:57.366Z,70.88
2022-11-05T20:14:25.908Z,70.64
2022-11-05T20:16:55.191Z,70.67
2022-11-05T20:19:23.913Z,70.52
2022-11-05T20:21:52.142Z,70.85
2022-11-05T20:24:24.782Z,70.94
2022-11-05T20:26:54.381Z,71.11
2022-11-05T20:29:22.423Z,70.94
2022-11-05T20:31:50.695Z,70.75
2022-11-05T20:34:19.994Z,70.80
2022-11-05T20:36:47.875Z,70.61
2022-11-05T20:39:16.831Z,70.96
2022-11-05T20:41:46.452Z,71.16
2022-11-05T20:44:14.939Z,71.38
2022-11-05T20:46:42.892Z,71.77
2022-11-05T20:49:11.077Z,71.77
2022-11-05T20:51:41.670Z,71.50
2022-11-05T20:54:10.769Z,71.61
2022-11-05T20:56:39.313Z,71.63
2022-11-05T20:59:07.726Z,71.66
2022-11-05T21:01:43.423Z,71.26
2022-11-05T21:04:17.745Z,71.43
2022-11-05T21:06:47.837Z,71.71
2022-11-05T21:09:15.998Z,71.42
2022-11-05T21:12:01.781Z,71.59
2022-11-05T21:14:30.515Z,71.64
2022-11-05T21:17:02.672Z,71.88
2022-11-05T21:19:37.012Z,72.18
2022-11-05T21:22:08.799Z,72.34
2022-11-05T21:24:37.180Z,72.57
2022-11-05T21:27:08.670Z,72.25
2022-11-05T21:29:37.137Z,72.16
2022-11-05T21:32:07.897Z,72.48
2022-11-05T21:34:36.050Z,72.71
2022-11-05T21:37:07.043Z,72.96
2022-11-05T21:39:35.108Z,72.63
2022-11-05T21:42:09.593Z,72.64
2022-11-05T21:44:41.589Z,72.85
2022-11-05T21:47:10.673Z,72.81
2022-11-05T21:49:40.057Z,73.04
2022-11-05T21:52:28.818Z,72.74
2022-11-05T21:55:14.339Z,72.89
2022-11-05T21:58:00.092Z,73.20
2022-11-05T22:00:28.596Z,72.74
2022-11-05T22:02:56.451Z,72.82
2022-11-05T22:05:24.394Z,72.81
2022-11-05T22:07:53.740Z,72.63
2022-11-05T22:10:21.727Z,73.07
2022-11-05T22:12:50.200Z,72.63
2022-11-05T22:15:18.288Z,72.63
2022-11-05T22:17:50.456Z,72.78
2022-11-05T22:20:18.765Z,72.46
2022-11-05T22:22:46.740Z,72.79
2022-11-05T22:25:16.938Z,72.62
2022-11-05T22:27:45.142Z,73.09
2022-11-05T22:30:14.470Z,73.04
2022-11-05T22:32:42.530Z,73.08
2022-11-05T22:35:13.825Z,73.53
2022-11-05T22:37:42.465Z,73.41
2022-11-05T22:40:23.877Z,73.33
2022-11-05T22:42:52.945Z,73.36
2022-11-05T22:45:27.828Z,73.47
2022-11-05T22:47:56.145Z,73.52
2022-11-05T22:50:24.249Z,73.60
2022-11-05T22:52:52.376Z,73.47
2022-11-05T22:55:21.573Z,73.53
2022-11-05T22:57:49.731Z,74.11
2022-11-05T23:00:18.534Z,74.22
2022-11-05T23:03:02.732Z,73.98
2022-11-05T23:05:30.817Z,74.59
2022-11-05T23:08:16.205Z,75.02
2022-11-05T23:11:03.370Z,74.79
2022-11-05T23:13:31.474Z,74.47
2022-11-05T23:16:17.071Z,74.89
2022-11-05T23:19:02.494Z,74.35
2022-11-05T23:21:47.976Z,74.53
2022-11-05T23:24:16.031Z,74.11
2022-11-05T23:26:50.835Z,74.02
2022-11-05T23:29:19.251Z,73.68
2022-11-05T23:32:04.608Z,73.83
2022-11-05T23:34:32.639Z,73.43
2022-11-05T23:37:17.681Z,73.75
2022-11-05T23:39:45.674Z,73.78
2022-11-05T23:42:32.494Z,73.60
2022-11-05T23:45:17.908Z,73.29
2022-11-05T23:48:03.291Z,73.71
2022-11-05T23:50:34.361Z,73.60
2022-11-05T23:53:06.560Z,73.68
2022-11-05T23:55:34.490Z,73.88
2022-11-05T23:58:03.795Z,73.97
